Terminal Aerodrome Forecast
Issued by NWS Atlanta, GA

Home | Current Version | Previous Version | Text Only | Print | Product List | Glossary On
Versions: 1 2 3 4 5 6 7 8 9 10 11 12 13 14 15 16 17 18 19 20 21 22 23 24 25 26 27 28 29 30 31 32 33 34 35 36 37 38 39
000
FTUS42 KFFC 281300 AAA
TAFATL
TAF AMD
KATL 281341Z 2814/2918 07010KT P6SM SCT007 OVC012
      TEMPO 2814/2816 6SM BR BKN007 OVC012
     FM281600 08010KT P6SM OVC018
     FM282100 07008KT 6SM -SHRA OVC025
     FM290400 08007KT 6SM SHRA BR OVC015
     FM290600 08007KT 6SM SHRA BR OVC009
     FM291000 07007KT 5SM SHRA BR OVC005
     FM291600 08005KT 6SM SHRA BR OVC010=

USA.gov is the U.S. government's official web portal to all federal, state and local government web resources and services.